Plato, Minnesota
Current Conditions -  °F | °C
As of 11:33 PM on Wednesday 26 Nov 2014 (Local Time) from KGYL Reporting Station
Clear Clear  
Wind Chill: -4°   Ceiling: Unl
Heat Index: 10°   Visibility: 10mi
Dew Point:   Wind: 10mph
Humidity: 66%   Direction: 320°NW
Pressure: 30.41"   Gusts: NA
Location:  44.77°N, 94.04°W
Report Text: KGYL 270533Z AUTO 32009KT 10SM CLR M12/M18 A3041 RMK AO2 T11251176
Loading
Personal Weather Stations






























Interactive Weather Map New forecast layout! Learn more

10-Day Weather Forecast

Advertisements
Track Severe Weather on mobile